Time;durP1;ratioP1;P1;durP2;ratioP2;P2;SDS_P1;SDS_P2;PMS_P1;PMS_P2;Temp;Humidity;BMP_temperature;BMP_pressure;BME280_temperature;BME280_humidity;BME280_pressure;Samples;Min_cycle;Max_cycle;Signal;HPM_P1;HPM_P2
2022/06/15 00:01:29;;;;;;;3.28;1.45;;;;;;;23.57;48.19;101046.25;4786641;30;20052;-63
2022/06/15 00:04:00;;;;;;;2.20;2.00;;;;;;;23.49;49.24;101041.63;4786643;29;20057;-63
2022/06/15 00:06:30;;;;;;;1.90;1.80;;;;;;;23.47;48.81;101041.19;4786980;29;20072;-63
2022/06/15 00:08:59;;;;;;;2.00;1.83;;;;;;;23.47;49.13;101049.56;4786439;29;20423;-63
2022/06/15 00:11:34;;;;;;;4.38;2.03;;;;;;;23.48;48.93;101049.22;4786496;30;20063;-63
2022/06/15 00:14:06;;;;;;;2.75;1.90;;;;;;;23.62;48.66;101053.56;4786780;29;20066;-63
2022/06/15 00:16:35;;;;;;;2.25;2.03;;;;;;;23.52;49.08;101054.91;4786468;29;20074;-63
2022/06/15 00:19:04;;;;;;;2.35;1.88;;;;;;;23.49;49.24;101047.22;4779418;29;20055;-63
2022/06/15 00:21:33;;;;;;;2.25;1.90;;;;;;;23.43;49.18;101040.28;4777593;30;20058;-63
2022/06/15 00:24:01;;;;;;;2.20;1.80;;;;;;;23.39;49.87;101044.94;4789553;30;20415;-63
2022/06/15 00:26:29;;;;;;;2.25;1.67;;;;;;;23.31;49.64;101050.34;4789469;29;20613;-63
2022/06/15 00:28:57;;;;;;;2.28;1.92;;;;;;;23.45;50.03;101047.13;4789798;29;20410;-63
2022/06/15 00:31:25;;;;;;;2.58;2.10;;;;;;;23.30;50.36;101048.69;4789643;29;20059;-63
2022/06/15 00:33:53;;;;;;;2.00;1.90;;;;;;;23.32;50.48;101048.38;4790160;29;20507;-63
2022/06/15 00:36:22;;;;;;;1.60;1.50;;;;;;;23.35;50.29;101050.44;4789506;29;20504;-63
2022/06/15 00:38:53;;;;;;;3.30;2.22;;;;;;;23.25;50.67;101040.56;4775376;29;20404;-63
2022/06/15 00:41:23;;;;;;;2.10;1.80;;;;;;;23.15;51.12;101046.66;4773857;30;20055;-63
2022/06/15 00:44:00;;;;;;;2.05;1.90;;;;;;;23.12;51.32;101044.59;4787665;29;20495;-63
2022/06/15 00:46:39;;;;;;;1.83;1.50;;;;;;;23.00;51.69;101040.66;4788970;30;20047;-63
2022/06/15 00:49:24;;;;;;;2.10;1.90;;;;;;;22.87;52.18;101053.03;4789423;29;20067;-63
2022/06/15 00:52:15;;;;;;;1.88;1.63;;;;;;;22.82;52.60;101056.88;4785494;30;20505;-63
2022/06/15 00:54:47;;;;;;;2.00;1.90;;;;;;;22.87;52.27;101053.84;4770105;30;20491;-63
2022/06/15 00:57:16;;;;;;;1.98;1.75;;;;;;;22.91;52.10;101051.16;4788596;29;20063;-63
2022/06/15 00:59:56;;;;;;;2.85;1.60;;;;;;;22.87;52.39;101053.84;4802747;29;20047;-63
2022/06/15 01:02:26;;;;;;;3.45;1.95;;;;;;;22.79;52.95;101055.59;4789315;29;20384;-63
2022/06/15 01:05:05;;;;;;;2.08;1.88;;;;;;;22.99;52.29;101054.97;4787335;30;20063;-63
2022/06/15 01:07:51;;;;;;;2.90;1.98;;;;;;;22.84;53.01;101062.09;4788658;29;20062;-62
2022/06/15 01:10:40;;;;;;;2.20;1.80;;;;;;;22.67;53.86;101062.03;4787501;30;20051;-62
2022/06/15 01:13:29;;;;;;;2.10;1.88;;;;;;;22.62;53.77;101058.69;4787463;30;20047;-62
2022/06/15 01:16:37;;;;;;;1.92;1.83;;;;;;;22.60;54.17;101061.00;4788624;30;20051;-62
2022/06/15 01:19:18;;;;;;;2.13;1.70;;;;;;;22.49;54.52;101058.66;4772612;29;20063;-62
2022/06/15 01:21:56;;;;;;;2.72;2.05;;;;;;;22.47;54.75;101052.63;4788586;29;20491;-62
2022/06/15 01:24:52;;;;;;;2.28;1.80;;;;;;;22.45;55.11;101060.53;4787255;30;20047;-62
2022/06/15 01:28:02;;;;;;;2.65;2.40;;;;;;;22.45;55.42;101054.94;4802233;29;20059;-62
2022/06/15 01:30:51;;;;;;;2.70;2.25;;;;;;;22.35;55.66;101050.66;4797743;29;20066;-62
2022/06/15 01:33:27;;;;;;;4.80;2.47;;;;;;;22.24;56.02;101050.31;4776912;30;20062;-62
2022/06/15 01:36:33;;;;;;;3.65;1.98;;;;;;;22.32;55.94;101048.56;4802216;29;20384;-62
2022/06/15 01:39:17;;;;;;;3.08;1.90;;;;;;;22.39;55.75;101050.78;4782247;29;20063;-62
2022/06/15 01:41:59;;;;;;;2.20;2.00;;;;;;;22.41;56.02;101057.63;4777035;30;20052;-62
2022/06/15 01:44:36;;;;;;;2.53;1.90;;;;;;;22.34;56.38;101057.38;4801892;29;20044;-62
2022/06/15 01:47:11;;;;;;;2.20;1.98;;;;;;;22.13;56.90;101049.13;4802025;29;20411;-62
2022/06/15 01:49:48;;;;;;;2.30;2.10;;;;;;;21.99;58.02;101053.09;4801717;29;20052;-62
2022/06/15 01:52:20;;;;;;;1.92;1.77;;;;;;;21.92;58.37;101050.06;4793563;29;20048;-62
2022/06/15 01:55:05;;;;;;;2.15;1.92;;;;;;;21.81;58.78;101049.72;4795093;29;20055;-62
2022/06/15 01:57:38;;;;;;;;;;;;;;;21.73;59.28;101059.78;4801466;29;20055;-62
2022/06/15 02:00:13;;;;;;;2.95;2.15;;;;;;;22.02;58.46;101057.16;4801069;29;19929;-62
2022/06/15 02:02:46;;;;;;;1.90;1.80;;;;;;;21.99;58.45;101058.66;4766876;30;20551;-62
2022/06/15 02:05:14;;;;;;;2.25;2.05;;;;;;;22.09;58.17;101059.38;4801564;29;20595;-62
2022/06/15 02:08:10;;;;;;;5.07;2.28;;;;;;;22.12;57.79;101053.09;4786735;29;20055;-62
2022/06/15 02:10:46;;;;;;;2.88;2.10;;;;;;;21.91;58.68;101058.75;4787642;30;20056;-62
2022/06/15 02:13:27;;;;;;;2.63;2.42;;;;;;;21.79;59.08;101049.22;4801591;29;20518;-62
2022/06/15 02:16:03;;;;;;;2.22;2.03;;;;;;;21.81;58.78;101054.47;4801360;29;20055;-62
2022/06/15 02:18:34;;;;;;;3.55;2.60;;;;;;;21.78;59.14;101046.78;4787675;30;20058;-62
2022/06/15 02:21:16;;;;;;;3.63;2.17;;;;;;;21.79;59.03;101051.22;4787740;29;20051;-62
2022/06/15 02:23:48;;;;;;;2.40;2.20;;;;;;;21.82;58.77;101044.94;4787534;30;20062;-62
2022/06/15 02:26:18;;;;;;;3.78;2.28;;;;;;;21.87;58.47;101048.34;4773255;30;20055;-63
2022/06/15 02:28:52;;;;;;;2.45;2.28;;;;;;;21.75;59.16;101046.31;4801380;29;20055;-62
2022/06/15 02:31:20;;;;;;;2.63;2.25;;;;;;;21.66;59.61;101042.81;4800846;29;20057;-62
2022/06/15 02:33:54;;;;;;;2.97;2.67;;;;;;;21.64;59.61;101045.09;4800781;29;20066;-62
2022/06/15 02:36:25;;;;;;;2.35;2.15;;;;;;;21.56;60.16;101055.19;4787735;29;20518;-62
2022/06/15 02:38:54;;;;;;;3.30;2.10;;;;;;;21.57;60.15;101048.47;4798652;29;20043;-62
2022/06/15 02:41:28;;;;;;;3.42;2.22;;;;;;;21.53;60.57;101063.41;4801090;29;20392;-62
2022/06/15 02:43:59;;;;;;;2.33;2.13;;;;;;;21.50;61.27;101050.19;4786113;30;20400;-62
2022/06/15 02:46:34;;;;;;;2.83;2.30;;;;;;;21.64;60.26;101058.25;4800872;29;20051;-62
2022/06/15 02:49:05;;;;;;;2.50;2.30;;;;;;;21.65;60.15;101057.88;4801197;29;20080;-62
2022/06/15 02:51:56;;;;;;;4.88;2.55;;;;;;;21.55;60.12;101058.34;4800233;29;20048;-62
2022/06/15 02:54:37;;;;;;;2.25;2.08;;;;;;;21.73;59.83;101068.16;4776554;30;20059;-62
2022/06/15 02:57:12;;;;;;;2.58;2.38;;;;;;;21.69;59.66;101056.03;4801021;29;20877;-62
2022/06/15 02:59:41;;;;;;;3.15;2.47;;;;;;;21.68;59.77;101059.97;4786959;29;20507;-62
2022/06/15 03:02:09;;;;;;;2.50;2.28;;;;;;;21.81;59.51;101058.06;4800637;29;20055;-62
2022/06/15 03:04:42;;;;;;;3.38;2.13;;;;;;;21.78;59.06;101063.50;4800059;29;20502;-62
2022/06/15 03:07:12;;;;;;;3.72;2.25;;;;;;;22.02;58.28;101059.94;4782861;29;20060;-62
2022/06/15 03:09:40;;;;;;;2.35;1.90;;;;;;;22.02;58.62;101060.78;4773125;29;20121;-62
2022/06/15 03:12:12;;;;;;;2.35;2.15;;;;;;;21.89;59.40;101056.31;4779617;29;20048;-61
2022/06/15 03:14:41;;;;;;;4.53;2.65;;;;;;;21.79;59.60;101051.22;4772168;29;20067;-61
2022/06/15 03:17:13;;;;;;;2.53;1.90;;;;;;;21.71;59.71;101048.16;4781301;30;20062;-61
2022/06/15 03:20:11;;;;;;;2.50;2.30;;;;;;;21.88;59.17;101057.47;4751206;30;20056;-61
2022/06/15 03:22:42;;;;;;;2.38;2.08;;;;;;;21.84;59.25;101053.75;4780804;29;20404;-62
2022/06/15 03:25:17;;;;;;;4.25;2.30;;;;;;;21.82;59.69;101050.50;4782579;29;20073;-62
2022/06/15 03:27:46;;;;;;;2.45;2.25;;;;;;;21.77;59.58;101048.78;4767057;30;20036;-62
2022/06/15 03:30:16;;;;;;;3.35;2.10;;;;;;;21.91;59.31;101053.19;4775790;30;20055;-62
2022/06/15 03:32:52;;;;;;;2.80;2.00;;;;;;;21.77;60.02;101046.00;4795997;29;20056;-62
2022/06/15 03:35:21;;;;;;;5.55;2.50;;;;;;;21.78;60.50;101057.94;4774510;29;20408;-63
2022/06/15 03:37:50;;;;;;;2.38;2.17;;;;;;;21.78;60.25;101058.75;4776893;29;20459;-62
2022/06/15 03:40:30;;;;;;;2.38;2.17;;;;;;;21.79;60.16;101062.38;4769986;29;20052;-62
2022/06/15 03:42:58;;;;;;;2.10;1.90;;;;;;;21.86;60.51;101057.03;4775125;29;20412;-62
2022/06/15 03:45:28;;;;;;;3.25;1.98;;;;;;;21.80;60.35;101055.63;4770295;29;20060;-62
2022/06/15 03:47:56;;;;;;;2.70;2.10;;;;;;;21.97;60.04;101052.63;4781332;29;20064;-63
2022/06/15 03:50:26;;;;;;;4.05;3.05;;;;;;;21.95;60.29;101071.66;4752835;30;20070;-64
2022/06/15 03:52:59;;;;;;;;;;;;;;;22.07;59.93;101067.25;4774034;29;20512;-62
2022/06/15 03:55:29;;;;;;;2.83;2.47;;;;;;;22.21;59.37;101070.53;4798391;29;19932;-62
2022/06/15 03:57:58;;;;;;;2.50;2.30;;;;;;;22.10;59.48;101070.16;4803723;29;20066;-62
2022/06/15 04:00:29;;;;;;;2.58;2.33;;;;;;;22.15;59.48;101078.28;4803716;29;20047;-62
2022/06/15 04:03:05;;;;;;;1.98;1.88;;;;;;;22.21;59.19;101078.88;4803583;29;20083;-62
2022/06/15 04:06:06;;;;;;;2.28;2.05;;;;;;;22.24;58.77;101077.38;4789164;29;20052;-62
2022/06/15 04:08:50;;;;;;;2.90;2.15;;;;;;;22.23;58.94;101081.31;4790067;29;20063;-62
2022/06/15 04:14:26;;;;;;;3.28;2.08;;;;;;;22.05;59.86;101080.72;4803298;29;20067;-62
2022/06/15 04:17:03;;;;;;;2.58;2.03;;;;;;;22.12;59.66;101075.38;4776702;30;20056;-62
2022/06/15 04:22:52;;;;;;;3.45;2.08;;;;;;;22.34;58.92;101081.69;4784962;29;20060;-62
2022/06/15 04:25:21;;;;;;;3.45;2.05;;;;;;;22.34;59.16;101076.91;4781638;30;20061;-62
2022/06/15 04:27:50;;;;;;;3.88;2.45;;;;;;;22.32;59.29;101082.03;4773481;30;20057;-62
2022/06/15 04:30:19;;;;;;;11.18;2.70;;;;;;;22.68;58.01;101079.59;4762187;30;20043;-69
2022/06/15 04:32:52;;;;;;;6.53;2.40;;;;;;;23.01;56.68;101075.78;4775144;30;20052;-69
2022/06/15 04:35:29;;;;;;;4.65;2.08;;;;;;;23.22;56.18;101085.97;4781123;29;20055;-68
2022/06/15 04:37:59;;;;;;;4.80;2.22;;;;;;;23.48;55.33;101076.31;4781724;29;20393;-69
2022/06/15 04:40:34;;;;;;;3.20;2.10;;;;;;;23.65;54.55;101082.75;4774663;29;20048;-69
2022/06/15 04:43:02;;;;;;;1.88;1.77;;;;;;;23.73;54.39;101077.00;4782182;29;20064;-68
2022/06/15 04:45:30;;;;;;;2.17;1.98;;;;;;;23.66;54.42;101085.16;4774941;30;20044;-69
2022/06/15 04:48:09;;;;;;;2.30;2.10;;;;;;;23.80;54.42;101078.38;4776333;29;20488;-68
2022/06/15 04:50:40;;;;;;;5.30;2.10;;;;;;;23.97;53.98;101079.97;4752510;30;20051;-69
2022/06/15 04:53:08;;;;;;;2.03;1.88;;;;;;;24.07;53.69;101075.84;4777748;29;20400;-68
2022/06/15 04:55:36;;;;;;;8.40;2.20;;;;;;;24.14;53.57;101084.41;4780630;29;20055;-69
2022/06/15 04:58:05;;;;;;;2.40;2.10;;;;;;;24.11;53.73;101088.78;4777830;30;20086;-69
2022/06/15 05:00:40;;;;;;;1.95;1.85;;;;;;;24.16;53.98;101090.47;4752172;30;20405;-69
2022/06/15 05:03:11;;;;;;;4.07;2.17;;;;;;;24.14;54.04;101085.25;4766935;30;20052;-69
2022/06/15 05:05:39;;;;;;;2.08;1.88;;;;;;;24.34;53.46;101088.09;4780160;29;20044;-69
2022/06/15 05:08:08;;;;;;;2.00;1.83;;;;;;;24.40;52.98;101086.66;4761995;30;20052;-69
2022/06/15 05:10:38;;;;;;;2.20;1.60;;;;;;;24.46;52.57;101086.38;4766547;30;20052;-68
2022/06/15 05:13:08;;;;;;;2.00;1.90;;;;;;;24.43;52.50;101085.94;4780121;29;20403;-68
2022/06/15 05:15:38;;;;;;;2.80;2.40;;;;;;;24.31;53.16;101086.06;4774749;30;20052;-68
2022/06/15 05:18:09;;;;;;;2.17;2.08;;;;;;;24.40;52.89;101083.84;4777668;30;20054;-69
2022/06/15 05:20:40;;;;;;;4.00;2.20;;;;;;;24.50;52.93;101090.91;4781250;29;20058;-69
2022/06/15 05:23:16;;;;;;;2.33;2.13;;;;;;;24.52;52.61;101084.91;4784457;30;20063;-69
2022/06/15 05:26:03;;;;;;;2.05;1.70;;;;;;;24.61;52.71;101085.53;4770535;30;20063;-68
2022/06/15 05:28:32;;;;;;;2.55;2.10;;;;;;;24.69;52.80;101090.13;4769806;30;20050;-68
2022/06/15 05:31:10;;;;;;;2.50;1.70;;;;;;;24.85;52.41;101099.66;4771788;29;20078;-68
2022/06/15 05:33:40;;;;;;;4.63;2.10;;;;;;;24.93;52.50;101099.47;4778200;29;20044;-68
2022/06/15 05:36:14;;;;;;;;;;;;;;;25.04;53.32;101102.50;4784934;29;20059;-68
2022/06/15 05:38:43;;;;;;;7.75;2.53;;;;;;;25.09;53.17;101109.81;4758558;30;20306;-68
2022/06/15 05:41:11;;;;;;;3.72;2.33;;;;;;;25.07;52.88;101104.56;4785137;29;20051;-68
2022/06/15 05:46:39;;;;;;;4.80;2.00;;;;;;;25.16;52.77;101092.34;4776134;29;20048;-68
2022/06/15 05:49:26;;;;;;;2.60;2.33;;;;;;;25.16;53.22;101101.53;4771727;29;20059;-68
2022/06/15 05:51:55;;;;;;;3.85;2.45;;;;;;;25.06;53.66;101099.31;4775944;29;20040;-68
2022/06/15 05:54:24;;;;;;;4.75;2.20;;;;;;;25.03;53.59;101105.69;4767187;29;20044;-68
2022/06/15 05:56:52;;;;;;;2.42;2.22;;;;;;;25.11;53.60;101106.66;4773868;30;20051;-69
2022/06/15 05:59:20;;;;;;;3.55;2.58;;;;;;;25.12;53.53;101099.84;4782172;30;20079;-68
2022/06/15 06:01:48;;;;;;;3.25;2.40;;;;;;;25.13;53.32;101104.28;4775802;30;20492;-68
2022/06/15 06:04:18;;;;;;;4.32;2.20;;;;;;;25.13;53.51;101093.91;4764967;30;20060;-68
2022/06/15 06:06:50;;;;;;;2.35;2.20;;;;;;;25.19;53.01;101092.44;4761595;30;20351;-68
2022/06/15 06:09:18;;;;;;;3.38;2.55;;;;;;;25.42;50.78;101093.66;4768789;30;20058;-68
2022/06/15 06:11:46;;;;;;;3.78;2.00;;;;;;;25.55;49.20;101089.53;4778927;30;20059;-68
2022/06/15 06:14:14;;;;;;;2.42;1.77;;;;;;;25.72;48.40;101085.44;4781792;30;20051;-68
2022/06/15 06:16:41;;;;;;;2.47;1.55;;;;;;;25.95;44.33;101084.63;4778508;30;20051;-68
2022/06/15 06:19:10;;;;;;;1.85;1.75;;;;;;;26.13;43.36;101101.78;4772451;30;20376;-68
2022/06/15 06:21:38;;;;;;;1.85;1.75;;;;;;;26.18;42.71;101089.41;4801855;29;20403;-69
2022/06/15 06:24:06;;;;;;;2.65;1.65;;;;;;;26.27;42.07;101087.22;4785201;30;20082;-68
2022/06/15 06:26:35;;;;;;;4.55;1.60;;;;;;;26.40;42.33;101084.19;4792428;29;20051;-68
2022/06/15 06:29:04;;;;;;;1.70;1.60;;;;;;;26.43;39.74;101083.41;4786991;30;20051;-68
2022/06/15 06:31:33;;;;;;;2.70;1.65;;;;;;;26.59;40.17;101085.25;4787480;30;20101;-68
2022/06/15 06:34:01;;;;;;;1.40;1.30;;;;;;;26.56;39.79;101089.63;4785338;30;20074;-69
2022/06/15 06:36:33;;;;;;;2.45;1.50;;;;;;;26.64;39.12;101094.16;4787157;30;20054;-68
2022/06/15 06:39:05;;;;;;;1.40;1.23;;;;;;;26.73;39.92;101093.88;4800926;29;20407;-69
2022/06/15 06:41:33;;;;;;;1.98;1.33;;;;;;;26.77;39.11;101091.09;4786987;30;20396;-69
2022/06/15 06:44:05;;;;;;;1.63;1.52;;;;;;;26.73;38.84;101091.06;4787033;30;20047;-68
2022/06/15 06:46:34;;;;;;;2.17;1.90;;;;;;;26.78;38.86;101087.94;4786852;30;20047;-68
2022/06/15 06:49:07;;;;;;;2.13;1.67;;;;;;;26.84;38.82;101086.41;4800601;29;20051;-69
2022/06/15 06:51:37;;;;;;;2.60;1.60;;;;;;;26.85;39.16;101087.22;4786836;30;20049;-68
2022/06/15 06:54:07;;;;;;;2.38;1.65;;;;;;;26.90;38.57;101091.69;4775119;30;20407;-69
2022/06/15 06:56:36;;;;;;;1.90;1.52;;;;;;;26.96;38.85;101087.41;4786823;29;20066;-68
2022/06/15 06:59:07;;;;;;;2.47;2.22;;;;;;;27.02;38.58;101087.88;4779728;30;20076;-69
2022/06/15 07:01:37;;;;;;;1.65;1.55;;;;;;;27.00;38.16;101084.63;4780457;30;20047;-69
2022/06/15 07:04:05;;;;;;;3.83;1.65;;;;;;;27.01;38.42;101089.03;4786752;30;20043;-69
2022/06/15 07:06:34;;;;;;;4.25;1.60;;;;;;;27.05;38.26;101090.72;4786940;29;20047;-68
2022/06/15 07:09:03;;;;;;;1.60;1.50;;;;;;;27.10;37.82;101096.00;4800306;29;20051;-68
2022/06/15 07:11:31;;;;;;;1.70;1.52;;;;;;;27.13;38.12;101096.44;4786820;30;20054;-68
2022/06/15 07:13:59;;;;;;;1.60;1.50;;;;;;;26.99;38.45;101095.06;4792526;29;20070;-69
2022/06/15 07:16:28;;;;;;;5.18;1.92;;;;;;;27.03;38.35;101095.91;4778413;30;20062;-68
2022/06/15 07:18:56;;;;;;;3.00;1.40;;;;;;;27.07;38.63;101105.19;4786341;29;20052;-68
2022/06/15 07:21:26;;;;;;;3.20;1.45;;;;;;;27.20;38.21;101091.72;4786479;30;20047;-68
2022/06/15 07:23:56;;;;;;;2.50;1.55;;;;;;;27.33;38.39;101106.28;4781622;30;20048;-67
2022/06/15 07:26:31;;;;;;;1.73;1.63;;;;;;;27.46;38.51;101108.88;4775823;30;20054;-68
2022/06/15 07:28:59;;;;;;;3.08;2.03;;;;;;;27.45;38.73;101101.59;4777066;30;20044;-68
2022/06/15 07:31:34;;;;;;;3.47;1.80;;;;;;;27.55;39.44;101109.34;4774925;29;20055;-68
2022/06/15 07:34:03;;;;;;;1.80;1.70;;;;;;;27.61;38.94;101104.25;4770637;30;20052;-68
2022/06/15 07:36:39;;;;;;;2.47;1.90;;;;;;;27.69;39.04;101117.16;4761377;30;20390;-69
2022/06/15 07:39:07;;;;;;;1.92;1.83;;;;;;;27.69;40.05;101116.34;4773540;30;20052;-69
2022/06/15 07:41:35;;;;;;;4.90;1.92;;;;;;;27.67;39.72;101113.94;4789967;29;20055;-68
2022/06/15 07:44:04;;;;;;;2.03;1.73;;;;;;;27.63;38.61;101113.88;4789218;29;20820;-69
2022/06/15 07:46:32;;;;;;;2.30;2.10;;;;;;;27.71;39.42;101111.16;4789827;29;20062;-68
2022/06/15 07:51:57;;;;;;;5.60;2.38;;;;;;;27.75;40.39;101101.56;4775615;30;20048;-69
2022/06/15 07:54:26;;;;;;;2.85;2.08;;;;;;;27.81;40.34;101102.00;4779434;30;20062;-70
2022/06/15 07:56:55;;;;;;;1.73;1.63;;;;;;;27.95;39.89;101103.34;4789632;30;20051;-70
2022/06/15 07:59:24;;;;;;;2.40;2.20;;;;;;;28.00;39.37;101103.00;4789845;30;20404;-70
2022/06/15 08:01:53;;;;;;;1.60;1.30;;;;;;;27.93;38.77;101109.38;4789752;30;20055;-69
2022/06/15 08:04:21;;;;;;;2.35;1.98;;;;;;;28.09;39.06;101103.47;4789848;30;20055;-68
2022/06/15 08:06:49;;;;;;;2.40;1.60;;;;;;;28.15;38.81;101104.72;4789759;30;20051;-69
2022/06/15 08:09:18;;;;;;;2.80;1.80;;;;;;;28.22;38.69;101100.34;4777163;30;20118;-68
2022/06/15 08:14:36;;;;;;;3.15;2.35;;;;;;;28.45;37.10;101111.44;4789739;30;20052;-70
2022/06/15 08:17:06;;;;;;;2.15;1.70;;;;;;;28.24;37.40;101104.41;4789282;29;20118;-70
2022/06/15 08:19:37;;;;;;;2.08;1.80;;;;;;;28.35;36.74;101109.34;4788257;30;20047;-70
2022/06/15 08:22:07;;;;;;;1.60;1.50;;;;;;;28.41;36.86;101100.16;4789578;30;20064;-70
2022/06/15 08:24:36;;;;;;;3.05;1.70;;;;;;;28.47;36.94;101094.94;4789511;30;20043;-70
2022/06/15 08:27:05;;;;;;;1.85;1.40;;;;;;;28.50;36.86;101096.97;4789450;29;20047;-70
2022/06/15 08:29:33;;;;;;;2.28;1.60;;;;;;;28.49;36.80;101098.16;4789379;30;20403;-71
2022/06/15 08:32:02;;;;;;;2.08;1.63;;;;;;;28.48;35.52;101104.22;4789427;30;20051;-70
2022/06/15 08:34:33;;;;;;;1.77;1.67;;;;;;;28.54;36.95;101097.00;4789161;30;20495;-68
2022/06/15 08:37:01;;;;;;;2.20;2.00;;;;;;;28.47;36.72;101096.94;4789291;30;20066;-71
2022/06/15 08:39:29;;;;;;;2.28;1.83;;;;;;;28.60;36.89;101091.81;4759217;30;20063;-72
2022/06/15 08:42:10;;;;;;;2.38;1.80;;;;;;;28.69;36.49;101095.88;4764379;30;20509;-72
2022/06/15 08:44:48;;;;;;;1.83;1.73;;;;;;;28.69;35.85;101093.06;4767414;30;20404;-71
2022/06/15 08:47:47;;;;;;;1.85;1.50;;;;;;;28.77;35.73;101087.47;4771451;30;20051;-71
2022/06/15 08:50:43;;;;;;;2.33;1.70;;;;;;;28.82;35.94;101089.91;4771310;30;20052;-71
2022/06/15 08:53:27;;;;;;;2.40;2.05;;;;;;;28.99;35.28;101098.88;4771222;30;20051;-71
2022/06/15 08:56:10;;;;;;;3.05;1.60;;;;;;;29.03;35.25;101099.72;4778311;30;20043;-71
2022/06/15 08:58:44;;;;;;;2.53;1.67;;;;;;;29.12;35.13;101102.16;4788947;30;20058;-70
2022/06/15 09:01:38;;;;;;;2.20;1.70;;;;;;;28.94;34.70;101098.03;4802873;29;20055;-70
2022/06/15 09:04:29;;;;;;;2.50;1.67;;;;;;;28.95;34.85;101079.13;4788877;30;20511;-71
2022/06/15 09:06:57;;;;;;;2.03;1.60;;;;;;;28.96;35.24;101087.19;4788870;30;20484;-71
2022/06/15 09:09:38;;;;;;;1.88;1.58;;;;;;;29.17;35.39;101082.06;4788860;30;20052;-71
2022/06/15 09:12:53;;;;;;;3.47;2.00;;;;;;;29.32;34.66;101077.28;4788742;30;20058;-71
2022/06/15 09:15:46;;;;;;;1.40;1.30;;;;;;;29.40;33.93;101076.06;4788769;30;20050;-71
2022/06/15 09:18:20;;;;;;;1.60;1.50;;;;;;;29.34;33.71;101086.94;4784422;29;20055;-71
2022/06/15 09:21:00;;;;;;;2.38;1.80;;;;;;;29.38;33.42;101075.66;4774802;30;20062;-71
2022/06/15 09:23:36;;;;;;;1.63;1.52;;;;;;;29.40;33.79;101072.44;4780064;30;20504;-71
2022/06/15 09:26:11;;;;;;;4.53;1.63;;;;;;;29.44;34.06;101076.91;4780083;30;20059;-71
2022/06/15 09:28:39;;;;;;;1.98;1.83;;;;;;;29.49;34.13;101079.34;4787278;30;20051;-72
2022/06/15 09:31:13;;;;;;;1.70;1.60;;;;;;;29.49;33.85;101075.72;4788285;30;20070;-72
2022/06/15 09:33:47;;;;;;;2.78;1.95;;;;;;;29.50;33.98;101072.50;4777520;30;20059;-72
2022/06/15 09:36:17;;;;;;;;;;;;;;;29.70;33.23;101077.75;4775250;30;20416;-72
2022/06/15 09:38:46;;;;;;;3.55;1.95;;;;;;;29.70;33.97;101074.13;4764066;30;20359;-72
2022/06/15 09:41:20;;;;;;;3.40;1.88;;;;;;;29.63;33.53;101080.56;4773994;30;20404;-72
2022/06/15 09:44:24;;;;;;;1.88;1.70;;;;;;;29.88;32.70;101080.63;4788235;30;20404;-72
2022/06/15 09:47:38;;;;;;;1.60;1.50;;;;;;;29.90;33.84;101081.00;4777344;30;20054;-72
2022/06/15 09:50:33;;;;;;;1.70;1.60;;;;;;;29.98;33.81;101070.53;4774980;30;20066;-72
2022/06/15 09:53:20;;;;;;;2.00;1.55;;;;;;;30.09;33.61;101061.25;4776689;30;20054;-72
2022/06/15 09:55:54;;;;;;;2.10;1.85;;;;;;;30.02;33.24;101068.50;4776050;30;20047;-72
2022/06/15 09:58:59;;;;;;;2.95;1.85;;;;;;;30.06;33.47;101071.34;4787787;30;20047;-72
2022/06/15 10:01:32;;;;;;;1.65;1.55;;;;;;;30.17;33.62;101065.72;4788003;30;20059;-72
2022/06/15 10:04:05;;;;;;;3.00;1.90;;;;;;;30.34;33.20;101060.44;4787971;30;20431;-71
2022/06/15 10:07:09;;;;;;;1.98;1.70;;;;;;;30.31;33.24;101060.03;4787740;29;20297;-72
2022/06/15 10:09:46;;;;;;;2.05;1.95;;;;;;;30.30;33.29;101040.69;4801653;29;20047;-72
2022/06/15 10:15:32;;;;;;;2.20;2.00;;;;;;;30.51;32.87;101053.97;4762936;30;20059;-72
2022/06/15 10:18:14;;;;;;;2.95;2.20;;;;;;;30.57;32.86;101049.50;4769220;30;20089;-72
2022/06/15 10:20:59;;;;;;;1.77;1.67;;;;;;;30.71;32.72;101045.03;4781838;30;20081;-72
2022/06/15 10:23:42;;;;;;;1.90;1.80;;;;;;;30.58;32.63;101042.63;4777630;30;20066;-73
2022/06/15 10:26:23;;;;;;;1.98;1.58;;;;;;;30.60;32.51;101036.59;4766090;30;20048;-73
2022/06/15 10:28:51;;;;;;;2.08;1.65;;;;;;;30.64;32.64;101053.50;4758199;30;20072;-72
2022/06/15 10:31:34;;;;;;;1.92;1.83;;;;;;;30.70;32.90;101049.88;4752471;30;20428;-72
2022/06/15 10:34:19;;;;;;;1.80;1.70;;;;;;;30.72;32.88;101054.34;4752186;30;20079;-72
2022/06/15 10:36:57;;;;;;;3.58;2.25;;;;;;;30.90;32.54;101051.41;4779994;29;20219;-72
2022/06/15 10:39:30;;;;;;;1.83;1.73;;;;;;;30.86;31.75;101050.63;4765579;30;20069;-72
2022/06/15 10:42:09;;;;;;;;;;;;;;;30.97;32.65;101040.91;4779610;30;20055;-72
2022/06/15 10:44:56;;;;;;;4.90;1.90;;;;;;;30.91;32.60;101030.44;4772432;30;19934;-72
2022/06/15 10:47:42;;;;;;;2.72;2.10;;;;;;;31.11;32.65;101025.88;4763796;30;20056;-72
2022/06/15 10:50:53;;;;;;;1.92;1.83;;;;;;;31.29;33.21;101019.34;4778862;29;20059;-72
2022/06/15 10:53:45;;;;;;;3.72;2.00;;;;;;;31.39;32.55;101017.66;4767369;30;20044;-71
2022/06/15 11:02:40;;;;;;;2.38;2.17;;;;;;;31.71;32.85;101024.31;4767363;30;20059;-72
2022/06/15 11:05:08;;;;;;;2.53;2.38;;;;;;;31.79;32.95;101023.00;4766915;30;20054;-72
2022/06/15 11:07:48;;;;;;;3.40;2.78;;;;;;;31.99;33.08;101008.31;4767293;30;20051;-72
2022/06/15 11:10:28;;;;;;;3.30;1.73;;;;;;;32.14;32.06;100989.97;4767317;30;20519;-72
2022/06/15 11:13:02;;;;;;;2.47;2.28;;;;;;;31.89;32.31;100991.03;4778104;30;20062;-72
2022/06/15 11:18:37;;;;;;;2.50;2.20;;;;;;;31.74;32.66;101001.63;4767116;30;20047;-72
2022/06/15 11:21:17;;;;;;;2.40;2.15;;;;;;;31.83;32.90;101012.47;4767295;30;20079;-71
2022/06/15 11:24:02;;;;;;;4.10;2.42;;;;;;;32.06;33.00;100998.94;4767075;30;20404;-71
2022/06/15 11:26:57;;;;;;;2.70;2.50;;;;;;;31.96;33.08;101007.09;4763415;30;20386;-72
2022/06/15 11:29:38;;;;;;;4.18;2.53;;;;;;;32.01;32.82;101000.22;4766522;30;20514;-71
2022/06/15 11:32:46;;;;;;;2.28;2.08;;;;;;;32.01;32.98;101014.38;4774448;30;20051;-72
2022/06/15 11:35:14;;;;;;;2.50;2.30;;;;;;;32.16;32.26;101007.31;4766726;30;20596;-72
2022/06/15 11:37:51;;;;;;;2.42;2.22;;;;;;;32.28;32.93;101011.66;4766722;30;20059;-72
2022/06/15 11:40:36;;;;;;;4.32;2.22;;;;;;;32.38;32.10;101009.91;4777253;29;20052;-72
2022/06/15 11:43:16;;;;;;;2.35;2.20;;;;;;;32.52;32.46;101005.34;4767500;30;20058;-72
2022/06/15 11:46:36;;;;;;;2.45;2.10;;;;;;;32.65;31.74;100995.03;4767736;30;20047;-72
2022/06/15 11:49:26;;;;;;;5.80;2.67;;;;;;;32.64;31.63;101004.00;4733226;30;20504;-72
2022/06/15 11:52:18;;;;;;;3.60;2.63;;;;;;;32.75;31.84;101001.00;4765401;30;20052;-72
2022/06/15 11:55:07;;;;;;;3.13;2.30;;;;;;;32.77;31.42;100987.22;4766772;30;20040;-72
2022/06/15 11:57:40;;;;;;;2.50;2.30;;;;;;;32.68;31.97;100996.22;4773454;30;20496;-72
2022/06/15 12:00:37;;;;;;;2.38;2.28;;;;;;;32.93;32.04;100990.22;4757095;30;20061;-72
2022/06/15 12:03:17;;;;;;;2.67;2.47;;;;;;;33.11;31.76;100997.72;4759735;30;20040;-72
2022/06/15 12:06:30;;;;;;;3.28;2.50;;;;;;;33.12;31.13;100985.13;4761612;30;20408;-72
2022/06/15 12:09:21;;;;;;;3.25;2.38;;;;;;;33.29;30.61;100985.28;4757858;30;20063;-72
2022/06/15 12:15:17;;;;;;;2.38;2.17;;;;;;;33.15;31.40;100978.63;4766119;30;20488;-72
2022/06/15 12:17:58;;;;;;;2.90;2.70;;;;;;;33.39;31.11;100970.16;4779495;29;20408;-71
2022/06/15 12:20:55;;;;;;;2.40;2.17;;;;;;;33.53;31.65;100971.16;4781149;30;20063;-72
2022/06/15 12:23:38;;;;;;;4.32;2.20;;;;;;;33.46;30.82;100966.38;4772225;29;20052;-71
2022/06/15 12:26:22;;;;;;;2.58;2.38;;;;;;;33.43;30.38;100962.34;4779529;29;20056;-71
2022/06/15 12:29:16;;;;;;;2.58;2.38;;;;;;;33.64;30.32;100957.59;4772207;30;20068;-71
2022/06/15 12:35:34;;;;;;;2.70;2.50;;;;;;;33.41;30.28;100961.22;4779379;30;20051;-72
2022/06/15 12:38:45;;;;;;;2.80;2.60;;;;;;;33.58;29.95;100959.31;4767328;30;20071;-73
2022/06/15 12:44:34;;;;;;;2.83;2.55;;;;;;;33.51;30.67;100961.06;4778366;30;20052;-75
2022/06/15 12:47:03;;;;;;;2.92;2.70;;;;;;;33.74;30.69;100950.94;4771129;29;20067;-72